Time;durP1;ratioP1;P1;durP2;ratioP2;P2;SDS_P1;SDS_P2;PMS_P1;PMS_P2;Temp;Humidity;BMP_temperature;BMP_pressure;BME280_temperature;BME280_humidity;BME280_pressure;Samples;Min_cycle;Max_cycle;Signal;HPM_P1;HPM_P2
2021/12/17 00:05:02;;;;;;;11.90;4.90;;;;;;;3.35;85.59;97892.51;107402;1288;53289;-75
2021/12/17 00:07:35;;;;;;;10.20;5.40;;;;;;;3.34;85.88;97896.30;107401;1287;37554;-75
2021/12/17 00:10:08;;;;;;;13.40;4.60;;;;;;;3.32;86.09;97890.46;107559;1284;40633;-75
2021/12/17 00:12:37;;;;;;;8.80;4.60;;;;;;;3.31;86.25;97882.88;107730;1282;28548;-75
2021/12/17 00:15:09;;;;;;;6.40;3.70;;;;;;;3.30;86.37;97879.73;107678;1284;31564;-75
2021/12/17 00:17:48;;;;;;;6.10;3.60;;;;;;;3.28;86.40;97868.33;107759;1284;41073;-75
2021/12/17 00:40:29;;;;;;;10.80;5.20;;;;;;;3.25;87.02;97870.58;107405;1288;34697;-75
2021/12/17 00:48:37;;;;;;;6.40;3.90;;;;;;;3.33;85.84;97884.52;107730;1283;37384;-75
2021/12/17 00:51:46;;;;;;;7.10;4.10;;;;;;;3.34;85.91;97884.73;107677;1283;43072;-75
2021/12/17 00:54:20;;;;;;;7.50;4.30;;;;;;;3.34;85.82;97886.83;107842;1283;30787;-75
2021/12/17 00:56:50;;;;;;;7.90;5.10;;;;;;;3.34;85.95;97884.29;107689;1283;38150;-75
2021/12/17 00:59:19;;;;;;;19.90;4.80;;;;;;;3.33;85.80;97878.02;107689;1284;51295;-75
2021/12/17 01:01:50;;;;;;;10.80;4.70;;;;;;;3.32;86.04;97888.84;107673;1283;52831;-75
2021/12/17 01:04:21;;;;;;;7.10;5.00;;;;;;;3.28;86.33;97890.22;107742;1279;29609;-75
2021/12/17 01:06:50;;;;;;;13.60;6.10;;;;;;;3.29;85.72;97874.38;107713;1284;32973;-75
2021/12/17 01:09:21;;;;;;;21.60;5.50;;;;;;;3.31;85.53;97881.23;107687;1283;41660;-75
2021/12/17 01:11:50;;;;;;;12.20;4.80;;;;;;;3.31;85.23;97877.51;107672;1284;33211;-74
2021/12/17 01:14:18;;;;;;;10.90;5.00;;;;;;;3.30;85.23;97870.13;107737;1282;37491;-75
2021/12/17 01:16:49;;;;;;;6.90;4.00;;;;;;;3.26;85.19;97854.81;107773;1284;37426;-75
2021/12/17 01:19:28;;;;;;;9.40;3.60;;;;;;;3.24;85.40;97863.00;107722;1283;28390;-75
2021/12/17 01:22:14;;;;;;;11.10;4.60;;;;;;;3.19;85.47;97858.50;107706;1284;29143;-75
2021/12/17 01:24:48;;;;;;;7.70;4.10;;;;;;;3.16;85.82;97863.14;107822;1282;36061;-74
2021/12/17 01:35:41;;;;;;;9.10;4.90;;;;;;;3.08;87.10;97844.18;107820;1282;32213;-75
2021/12/17 01:41:14;;;;;;;9.80;5.00;;;;;;;3.04;87.41;97837.65;107652;1283;45781;-75
2021/12/17 01:43:47;;;;;;;9.40;4.50;;;;;;;3.04;87.30;97838.78;107750;1283;29682;-75
2021/12/17 01:46:20;;;;;;;10.60;5.60;;;;;;;3.01;87.27;97831.24;107764;1284;27760;-75
2021/12/17 01:49:06;;;;;;;13.80;5.40;;;;;;;3.02;87.16;97830.03;107672;1284;39337;-75
2021/12/17 02:00:18;;;;;;;9.20;5.00;;;;;;;3.05;86.86;97837.89;107677;1284;40607;-75
2021/12/17 02:02:50;;;;;;;8.40;4.60;;;;;;;3.04;86.62;97839.27;107812;1282;29881;-76
2021/12/17 02:05:19;;;;;;;9.40;4.70;;;;;;;3.04;86.23;97837.34;107723;1284;35641;-75
2021/12/17 02:07:51;;;;;;;6.80;3.30;;;;;;;3.04;85.95;97826.98;107751;1284;29952;-74
2021/12/17 02:11:06;;;;;;;8.00;3.50;;;;;;;3.04;85.60;97826.98;107658;1283;37105;-75
2021/12/17 02:22:34;;;;;;;8.70;3.60;;;;;;;3.04;85.12;97809.41;107699;1283;29898;-75
2021/12/17 02:33:16;;;;;;;11.20;4.20;;;;;;;2.97;86.06;97793.14;107681;1282;41472;-75
2021/12/17 02:35:45;;;;;;;5.90;4.10;;;;;;;2.96;86.03;97799.52;107672;1283;37334;-75
2021/12/17 02:38:16;;;;;;;9.10;4.70;;;;;;;2.94;86.33;97805.88;107669;1284;30104;-75
2021/12/17 02:46:17;;;;;;;8.80;4.50;;;;;;;2.97;85.96;97807.96;107699;1284;29534;-75
2021/12/17 02:48:46;;;;;;;11.30;5.20;;;;;;;2.97;85.73;97797.16;107669;1283;41102;-76
2021/12/17 02:51:15;;;;;;;8.10;3.60;;;;;;;2.96;85.24;97790.96;107709;1283;34709;-76
2021/12/17 02:53:45;;;;;;;8.90;3.50;;;;;;;2.96;85.10;97785.64;107644;1283;35395;-75
2021/12/17 02:56:14;;;;;;;12.80;4.70;;;;;;;2.93;85.10;97789.92;107756;1278;35394;-76
2021/12/17 02:58:42;;;;;;;11.90;4.70;;;;;;;2.92;85.15;97803.58;107764;1283;28899;-75
2021/12/17 03:01:12;;;;;;;10.40;4.40;;;;;;;2.90;85.43;97802.50;107838;1284;40912;-75
2021/12/17 03:03:44;;;;;;;11.30;4.70;;;;;;;2.88;85.27;97806.65;107770;1284;35956;-75
2021/12/17 03:06:13;;;;;;;10.70;4.50;;;;;;;2.90;85.04;97801.25;107744;1283;30549;-75
2021/12/17 03:08:42;;;;;;;8.20;4.30;;;;;;;2.90;84.97;97804.19;107776;1283;38775;-75
2021/12/17 03:11:10;;;;;;;9.50;4.00;;;;;;;2.90;85.07;97796.48;107718;1282;46158;-75
2021/12/17 03:13:39;;;;;;;7.60;4.10;;;;;;;2.90;84.97;97801.09;107779;1283;32040;-74
2021/12/17 03:16:12;;;;;;;13.80;4.80;;;;;;;2.89;84.92;97809.51;107716;1284;34072;-75
2021/12/17 03:24:05;;;;;;;11.20;5.40;;;;;;;2.88;85.57;97806.00;107759;1278;37202;-75
2021/12/17 03:26:34;;;;;;;10.40;5.00;;;;;;;2.88;85.63;97800.45;107853;1282;35785;-75
2021/12/17 03:29:06;;;;;;;12.90;5.40;;;;;;;2.89;85.75;97797.02;107695;1283;34412;-75
2021/12/17 03:31:35;;;;;;;12.30;5.60;;;;;;;2.88;85.90;97802.59;107725;1284;37479;-75
2021/12/17 03:34:16;;;;;;;11.40;5.80;;;;;;;2.88;86.13;97816.36;107715;1284;38012;-75
2021/12/17 03:36:48;;;;;;;9.40;4.30;;;;;;;2.87;86.32;97805.80;107781;1281;27967;-75
2021/12/17 03:39:16;;;;;;;10.40;5.30;;;;;;;2.85;86.38;97795.81;107700;1283;37395;-75
2021/12/17 03:41:50;;;;;;;12.20;5.40;;;;;;;2.83;86.53;97799.48;107692;1282;44903;-75
2021/12/17 03:44:20;;;;;;;11.20;5.80;;;;;;;2.84;86.76;97795.98;107695;1283;35299;-75
2021/12/17 03:46:50;;;;;;;15.20;6.00;;;;;;;2.82;86.88;97798.66;107696;1283;39811;-75
2021/12/17 03:49:19;;;;;;;10.40;5.00;;;;;;;2.81;86.97;97798.77;107656;1283;35470;-75
2021/12/17 03:51:52;;;;;;;10.40;6.10;;;;;;;2.81;87.08;97798.52;107771;1281;38199;-75
2021/12/17 03:54:21;;;;;;;14.10;5.80;;;;;;;2.80;87.16;97806.59;107768;1282;27639;-75
2021/12/17 03:56:50;;;;;;;13.90;6.00;;;;;;;2.77;87.33;97811.98;107686;1282;42812;-75
2021/12/17 03:59:19;;;;;;;18.20;6.80;;;;;;;2.73;87.34;97803.81;107701;1284;35087;-75
2021/12/17 04:01:48;;;;;;;13.70;5.90;;;;;;;2.70;87.53;97815.21;107709;1283;41153;-75
2021/12/17 04:04:17;;;;;;;11.40;5.50;;;;;;;2.69;87.54;97802.80;107767;1284;35300;-75
2021/12/17 04:06:45;;;;;;;14.90;5.80;;;;;;;2.67;87.46;97793.92;107757;1283;31137;-75
2021/12/17 04:09:19;;;;;;;8.70;5.00;;;;;;;2.65;87.56;97800.68;107756;1283;38228;-75
2021/12/17 04:11:48;;;;;;;10.20;5.50;;;;;;;2.63;87.62;97820.33;107790;1281;35428;-75
2021/12/17 04:14:19;;;;;;;7.10;4.30;;;;;;;2.63;87.57;97811.55;107713;1282;37810;-75
2021/12/17 04:16:47;;;;;;;7.90;4.60;;;;;;;2.65;87.71;97820.05;107764;1282;43534;-75
2021/12/17 04:19:16;;;;;;;11.20;5.30;;;;;;;2.67;87.76;97821.91;107750;1282;36643;-75
2021/12/17 04:21:45;;;;;;;11.60;6.20;;;;;;;2.66;87.71;97822.02;107806;1281;27817;-75
2021/12/17 04:24:13;;;;;;;14.10;5.60;;;;;;;2.65;87.84;97819.05;107776;1282;32108;-75
2021/12/17 04:26:42;;;;;;;12.30;5.90;;;;;;;2.62;87.87;97825.80;107803;1279;41809;-75
2021/12/17 04:29:10;;;;;;;11.90;5.80;;;;;;;2.62;87.89;97816.98;107804;1283;38380;-75
2021/12/17 04:31:39;;;;;;;12.40;6.20;;;;;;;2.61;87.92;97825.20;107751;1282;35244;-75
2021/12/17 04:34:08;;;;;;;14.90;7.00;;;;;;;2.59;87.99;97816.39;107659;1281;33407;-75
2021/12/17 04:36:38;;;;;;;6.80;4.30;;;;;;;2.58;88.01;97810.83;107723;1284;29974;-74
2021/12/17 04:39:06;;;;;;;14.20;6.60;;;;;;;2.55;88.01;97808.41;107754;1282;32235;-75
2021/12/17 04:41:45;;;;;;;11.60;6.40;;;;;;;2.53;88.03;97811.13;107832;1283;34241;-75
2021/12/17 04:44:17;;;;;;;12.00;5.50;;;;;;;2.52;88.15;97815.59;107907;1282;37409;-74
2021/12/17 04:46:51;;;;;;;17.30;6.80;;;;;;;2.52;88.28;97803.34;107847;1282;40157;-75
2021/12/17 04:57:42;;;;;;;7.50;5.10;;;;;;;2.42;88.91;97798.66;107893;1278;39293;-75
2021/12/17 05:00:18;;;;;;;11.20;3.90;;;;;;;2.37;89.06;97795.41;107927;1282;31927;-75
2021/12/17 05:02:51;;;;;;;11.30;5.30;;;;;;;2.34;89.13;97800.48;107824;1282;34868;-74
2021/12/17 05:05:21;;;;;;;13.30;6.10;;;;;;;2.31;89.28;97812.50;107817;1282;35004;-75
2021/12/17 05:07:52;;;;;;;;;;;;;;;2.32;89.31;97812.59;107895;1283;40721;-74
2021/12/17 05:10:29;;;;;;;12.50;4.50;;;;;;;2.31;89.35;97804.02;107851;1282;36771;-75
2021/12/17 05:18:33;;;;;;;13.00;5.90;;;;;;;2.29;88.96;97807.20;107746;1283;58211;-75
2021/12/17 05:21:06;;;;;;;12.50;6.20;;;;;;;2.29;89.01;97799.71;107798;1283;37524;-75
2021/12/17 05:23:39;;;;;;;12.80;6.60;;;;;;;2.29;88.89;97797.98;107769;1283;33575;-75
2021/12/17 05:26:12;;;;;;;11.10;5.80;;;;;;;2.29;88.94;97795.15;107798;1284;39030;-75
2021/12/17 05:28:40;;;;;;;7.80;3.80;;;;;;;2.29;88.97;97798.38;107889;1283;30896;-75
2021/12/17 05:31:09;;;;;;;9.30;4.90;;;;;;;2.26;88.75;97793.82;107802;1282;37721;-75
2021/12/17 05:33:38;;;;;;;11.80;4.90;;;;;;;2.22;88.65;97801.48;107766;1279;46557;-75
2021/12/17 05:36:06;;;;;;;12.00;6.30;;;;;;;2.21;88.70;97804.61;107798;1283;33096;-75
2021/12/17 05:38:35;;;;;;;10.10;5.90;;;;;;;2.18;88.65;97804.97;107785;1281;35292;-75
2021/12/17 05:41:04;;;;;;;13.20;6.50;;;;;;;2.17;88.62;97799.05;107783;1282;33883;-75
2021/12/17 05:43:36;;;;;;;12.00;5.90;;;;;;;2.16;88.57;97801.42;107789;1282;34873;-75
2021/12/17 05:46:10;;;;;;;12.70;5.90;;;;;;;2.17;88.50;97790.44;107890;1282;31824;-75
2021/12/17 05:48:40;;;;;;;11.60;5.80;;;;;;;2.18;88.30;97787.51;107842;1283;29954;-75
2021/12/17 05:51:11;;;;;;;14.70;5.90;;;;;;;2.18;88.45;97805.85;107854;1282;33472;-75
2021/12/17 05:53:40;;;;;;;11.90;5.50;;;;;;;2.19;88.36;97804.13;107824;1283;37095;-75
2021/12/17 05:56:08;;;;;;;12.40;5.30;;;;;;;2.20;88.32;97796.84;107849;1283;36782;-75
2021/12/17 05:58:37;;;;;;;11.00;6.10;;;;;;;2.20;88.02;97806.86;107765;1283;34051;-75
2021/12/17 06:01:05;;;;;;;15.50;6.40;;;;;;;2.20;88.01;97801.27;107805;1284;31752;-74
2021/12/17 06:03:34;;;;;;;10.40;5.50;;;;;;;2.18;87.92;97801.23;107742;1283;36409;-75
2021/12/17 06:06:02;;;;;;;11.00;5.20;;;;;;;2.16;87.84;97803.44;107742;1283;33400;-75
2021/12/17 06:08:31;;;;;;;15.30;5.60;;;;;;;2.17;87.77;97801.66;107784;1281;32223;-75
2021/12/17 06:10:59;;;;;;;13.40;5.80;;;;;;;2.15;87.78;97805.89;107888;1283;33898;-75
2021/12/17 06:13:28;;;;;;;10.90;5.30;;;;;;;2.16;87.61;97804.73;107757;1282;42032;-75
2021/12/17 06:15:56;;;;;;;9.40;5.50;;;;;;;2.17;87.64;97802.31;107882;1282;30976;-75
2021/12/17 06:18:25;;;;;;;12.60;6.50;;;;;;;2.18;87.65;97801.30;107783;1281;42861;-75
2021/12/17 06:20:54;;;;;;;8.70;5.40;;;;;;;2.19;87.70;97810.89;107812;1282;37693;-75
2021/12/17 06:23:22;;;;;;;13.20;5.60;;;;;;;2.22;87.74;97813.23;107678;1282;29234;-75
2021/12/17 06:25:51;;;;;;;9.10;5.40;;;;;;;2.22;87.58;97814.71;107895;1282;28119;-75
2021/12/17 06:28:19;;;;;;;7.80;4.10;;;;;;;2.21;87.45;97814.20;107855;1283;32744;-75
2021/12/17 06:30:48;;;;;;;9.80;5.10;;;;;;;2.21;87.18;97809.48;107770;1281;35085;-75
2021/12/17 06:33:16;;;;;;;9.60;5.40;;;;;;;2.20;86.83;97811.54;107849;1283;37503;-75
2021/12/17 06:35:45;;;;;;;14.10;5.50;;;;;;;2.20;86.73;97820.46;107841;1282;35847;-75
2021/12/17 06:38:13;;;;;;;13.40;5.90;;;;;;;2.18;86.49;97816.88;107888;1282;36457;-74
2021/12/17 06:40:42;;;;;;;10.00;4.40;;;;;;;2.18;86.57;97824.98;107788;1282;37076;-75
2021/12/17 06:43:10;;;;;;;13.80;5.00;;;;;;;2.17;86.43;97827.98;107935;1282;39039;-75
2021/12/17 06:45:50;;;;;;;11.70;6.10;;;;;;;2.15;86.53;97840.58;107811;1281;30244;-75
2021/12/17 06:48:23;;;;;;;13.10;4.60;;;;;;;2.16;86.72;97840.86;107841;1282;42609;-75
2021/12/17 07:21:37;;;;;;;16.60;6.20;;;;;;;2.18;87.03;97842.16;107801;1281;27164;-74
2021/12/17 07:35:40;;;;;;;11.90;6.00;;;;;;;2.17;86.40;97856.52;107906;1282;33290;-76
2021/12/17 07:40:57;;;;;;;14.30;6.30;;;;;;;2.19;86.15;97858.95;107766;1283;29132;-76
2021/12/17 07:43:30;;;;;;;12.10;6.00;;;;;;;2.20;86.51;97854.84;107753;1283;39683;-76
2021/12/17 07:46:04;;;;;;;11.70;6.60;;;;;;;2.20;86.45;97851.23;107792;1282;32987;-75
2021/12/17 07:48:33;;;;;;;13.90;6.70;;;;;;;2.20;86.51;97855.23;107775;1283;29370;-76
2021/12/17 07:51:04;;;;;;;11.60;6.70;;;;;;;2.19;86.48;97846.23;107734;1281;38947;-75
2021/12/17 07:53:34;;;;;;;13.10;6.20;;;;;;;2.17;86.21;97839.26;107826;1282;38169;-76
2021/12/17 07:56:04;;;;;;;8.50;5.60;;;;;;;2.11;85.92;97840.02;107723;1283;40030;-76
2021/12/17 07:58:33;;;;;;;11.30;5.40;;;;;;;2.06;85.56;97831.10;107801;1282;31879;-75
2021/12/17 08:01:03;;;;;;;13.60;6.90;;;;;;;2.03;85.11;97824.54;107715;1282;38219;-76
2021/12/17 08:03:32;;;;;;;8.90;4.40;;;;;;;2.03;85.16;97825.19;107870;1283;29995;-75
2021/12/17 08:06:04;;;;;;;10.10;4.80;;;;;;;2.04;84.99;97814.08;107780;1284;29366;-76
2021/12/17 08:08:32;;;;;;;6.90;4.20;;;;;;;2.00;84.64;97814.88;107675;1283;38943;-75
2021/12/17 08:11:03;;;;;;;11.30;5.00;;;;;;;2.00;84.51;97818.22;107752;1283;38338;-75
2021/12/17 08:13:33;;;;;;;11.30;4.30;;;;;;;2.03;84.36;97809.69;107864;1282;39237;-75
2021/12/17 08:16:15;;;;;;;13.60;5.10;;;;;;;2.03;84.11;97818.95;107769;1282;32734;-75
2021/12/17 08:18:53;;;;;;;4.80;3.00;;;;;;;2.02;83.90;97815.69;107777;1282;39506;-75
2021/12/17 08:29:53;;;;;;;9.30;4.40;;;;;;;2.06;83.53;97831.63;107781;1281;29078;-76
2021/12/17 08:32:22;;;;;;;9.60;4.40;;;;;;;2.05;83.13;97823.54;107741;1281;44371;-75
2021/12/17 08:34:51;;;;;;;14.50;3.80;;;;;;;2.04;83.23;97829.21;107742;1282;38239;-75
2021/12/17 08:37:19;;;;;;;8.80;4.00;;;;;;;2.05;83.09;97828.02;107725;1282;28931;-75
2021/12/17 08:39:48;;;;;;;9.80;4.70;;;;;;;2.07;82.94;97832.36;107734;1283;36346;-76
2021/12/17 08:42:16;;;;;;;9.50;4.00;;;;;;;2.08;83.08;97829.79;107888;1284;51493;-76
2021/12/17 08:44:44;;;;;;;9.50;4.50;;;;;;;2.11;83.15;97828.42;107880;1282;45912;-75
2021/12/17 08:47:13;;;;;;;13.80;5.40;;;;;;;2.12;83.09;97825.44;107922;1282;31268;-75
2021/12/17 08:49:43;;;;;;;7.40;4.10;;;;;;;2.13;83.04;97822.02;107789;1281;33114;-75
2021/12/17 08:52:13;;;;;;;7.10;4.20;;;;;;;2.15;83.24;97818.98;107846;1283;39299;-75
2021/12/17 08:54:42;;;;;;;7.20;4.40;;;;;;;2.14;83.06;97819.25;107811;1284;35174;-75
2021/12/17 08:57:10;;;;;;;12.80;4.20;;;;;;;2.16;83.17;97825.13;107804;1278;37971;-75
2021/12/17 08:59:40;;;;;;;9.30;4.10;;;;;;;2.16;83.01;97825.61;107717;1284;35434;-75
2021/12/17 09:02:09;;;;;;;9.40;4.10;;;;;;;2.14;83.01;97836.03;107836;1284;33321;-75
2021/12/17 09:04:38;;;;;;;10.40;5.20;;;;;;;2.12;83.04;97836.33;107783;1282;33893;-76
2021/12/17 09:07:07;;;;;;;13.00;5.90;;;;;;;2.09;83.25;97841.42;107743;1281;30549;-76
2021/12/17 09:09:35;;;;;;;8.90;4.40;;;;;;;2.11;83.28;97840.98;107717;1283;34267;-75
2021/12/17 09:12:06;;;;;;;7.80;3.50;;;;;;;2.11;83.29;97836.02;107754;1282;33880;-75
2021/12/17 09:14:35;;;;;;;11.90;5.10;;;;;;;2.10;83.48;97851.35;107752;1282;35216;-75
2021/12/17 09:17:04;;;;;;;9.90;3.60;;;;;;;2.11;83.73;97849.45;107812;1283;31902;-75
2021/12/17 09:19:33;;;;;;;18.00;5.20;;;;;;;2.11;83.58;97848.63;107748;1281;34658;-75
2021/12/17 09:22:02;;;;;;;12.40;3.90;;;;;;;2.10;83.77;97847.46;107789;1283;31004;-75
2021/12/17 09:24:30;;;;;;;9.80;5.10;;;;;;;2.10;83.85;97858.80;107726;1283;40452;-75
2021/12/17 09:26:59;;;;;;;13.10;6.20;;;;;;;2.11;83.94;97855.75;107687;1282;33559;-75
2021/12/17 09:29:28;;;;;;;7.30;2.80;;;;;;;2.12;84.01;97855.94;107761;1283;39552;-75
2021/12/17 09:31:56;;;;;;;12.60;5.00;;;;;;;2.15;84.02;97851.08;107776;1282;30722;-75
2021/12/17 09:34:25;;;;;;;11.50;4.60;;;;;;;2.16;84.16;97850.27;107740;1284;34884;-76
2021/12/17 09:36:53;;;;;;;13.80;5.60;;;;;;;2.16;84.28;97861.23;107841;1284;33793;-75
2021/12/17 09:39:22;;;;;;;10.60;5.20;;;;;;;2.20;84.41;97850.29;107796;1281;31949;-76
2021/12/17 09:41:53;;;;;;;11.50;5.90;;;;;;;2.24;84.64;97849.75;107672;1282;46478;-76
2021/12/17 09:44:20;;;;;;;;;;;;;;;2.29;84.52;97839.32;107796;1282;32657;-75
2021/12/17 09:46:49;;;;;;;9.80;3.90;;;;;;;2.33;84.51;97829.38;107877;1283;34468;-76
2021/12/17 09:49:21;;;;;;;14.10;4.80;;;;;;;2.31;84.27;97835.21;107703;1284;36755;-76
2021/12/17 09:51:50;;;;;;;9.60;4.00;;;;;;;2.28;84.48;97819.67;107773;1283;31414;-75
2021/12/17 09:54:19;;;;;;;9.60;4.60;;;;;;;2.29;84.47;97820.44;107765;1283;30817;-75
2021/12/17 09:56:47;;;;;;;9.80;4.20;;;;;;;2.38;84.67;97805.77;107748;1284;35176;-74
2021/12/17 09:59:16;;;;;;;11.10;4.10;;;;;;;2.40;84.35;97794.63;107879;1282;32275;-75
2021/12/17 10:01:46;;;;;;;10.30;4.10;;;;;;;2.37;84.17;97801.20;107774;1283;32228;-75
2021/12/17 10:04:20;;;;;;;12.20;4.50;;;;;;;2.30;83.84;97787.39;107864;1282;43703;-75
2021/12/17 10:06:50;;;;;;;9.60;4.70;;;;;;;2.26;84.05;97791.94;107749;1283;43361;-75
2021/12/17 10:09:19;;;;;;;8.90;3.90;;;;;;;2.29;84.08;97794.80;107878;1282;43695;-75
2021/12/17 10:12:06;;;;;;;13.80;4.10;;;;;;;2.31;84.16;97792.27;107799;1282;27707;-75
2021/12/17 10:14:35;;;;;;;12.10;4.20;;;;;;;2.35;84.12;97798.02;107759;1283;40932;-75
2021/12/17 10:17:09;;;;;;;11.10;4.00;;;;;;;2.36;83.89;97803.22;107733;1283;36281;-74
2021/12/17 10:19:46;;;;;;;9.10;4.60;;;;;;;2.37;83.64;97797.38;107729;1283;38618;-75
2021/12/17 10:22:17;;;;;;;9.90;4.30;;;;;;;2.42;83.67;97799.55;107812;1283;30904;-74
2021/12/17 10:24:56;;;;;;;12.00;5.00;;;;;;;2.42;83.60;97800.77;107711;1283;43627;-74
2021/12/17 10:27:27;;;;;;;13.00;5.80;;;;;;;2.39;83.19;97793.16;107879;1283;39005;-75
2021/12/17 10:29:56;;;;;;;9.80;4.10;;;;;;;2.43;83.25;97796.53;107878;1282;34428;-74
2021/12/17 10:32:27;;;;;;;7.40;3.40;;;;;;;2.49;83.10;97786.19;107837;1283;37365;-75
2021/12/17 10:35:05;;;;;;;9.30;4.70;;;;;;;2.51;82.88;97777.38;107892;1283;44882;-74
2021/12/17 10:37:37;;;;;;;6.80;3.10;;;;;;;2.56;82.97;97781.67;107900;1282;37134;-74
2021/12/17 10:40:22;;;;;;;10.60;4.30;;;;;;;2.56;82.71;97771.20;107911;1282;37065;-74
2021/12/17 10:43:06;;;;;;;12.60;5.80;;;;;;;2.47;82.33;97773.14;107922;1284;34388;-74
2021/12/17 10:45:37;;;;;;;13.30;7.20;;;;;;;2.44;82.19;97769.44;107873;1283;36808;-75
2021/12/17 10:48:34;;;;;;;13.50;5.70;;;;;;;2.47;82.45;97775.77;107922;1281;31955;-74
2021/12/17 10:51:31;;;;;;;12.00;6.80;;;;;;;2.56;82.33;97775.51;107916;1282;34177;-74
2021/12/17 10:54:04;;;;;;;11.70;5.80;;;;;;;2.62;82.05;97774.21;107874;1283;39681;-74
2021/12/17 10:56:34;;;;;;;11.60;3.80;;;;;;;2.68;82.13;97770.98;107757;1283;36400;-75
2021/12/17 10:59:08;;;;;;;14.10;5.20;;;;;;;2.70;81.56;97775.05;107763;1283;32594;-74
2021/12/17 11:01:43;;;;;;;8.50;4.60;;;;;;;2.71;81.41;97765.70;107855;1283;47256;-75
2021/12/17 11:04:20;;;;;;;9.20;5.30;;;;;;;2.65;81.15;97773.40;107877;1284;30102;-75
2021/12/17 11:06:51;;;;;;;7.70;3.90;;;;;;;2.62;81.44;97770.51;107735;1282;36464;-75
2021/12/17 11:09:43;;;;;;;4.50;3.10;;;;;;;2.63;81.32;97772.13;107838;1283;36698;-75
2021/12/17 11:12:29;;;;;;;7.20;4.10;;;;;;;2.63;81.23;97774.62;107809;1284;42876;-75
2021/12/17 11:15:10;;;;;;;5.30;2.70;;;;;;;2.68;81.46;97777.05;107867;1282;35180;-74
2021/12/17 11:17:42;;;;;;;16.50;5.10;;;;;;;2.69;80.67;97765.98;107904;1282;31487;-75
2021/12/17 11:20:14;;;;;;;8.80;4.00;;;;;;;2.69;80.80;97768.52;107904;1283;39533;-75
2021/12/17 11:22:45;;;;;;;10.50;4.60;;;;;;;2.68;80.75;97771.46;107841;1283;38471;-75
2021/12/17 11:25:14;;;;;;;8.40;4.30;;;;;;;2.69;80.81;97771.75;107871;1283;34161;-75
2021/12/17 11:27:42;;;;;;;8.50;4.30;;;;;;;2.68;80.75;97770.25;107821;1284;31705;-74
2021/12/17 11:30:15;;;;;;;11.10;5.40;;;;;;;2.65;80.70;97767.69;107731;1283;37049;-74
2021/12/17 11:32:46;;;;;;;13.80;4.70;;;;;;;2.59;80.56;97764.63;107936;1284;41469;-75
2021/12/17 11:35:18;;;;;;;14.20;4.90;;;;;;;2.58;80.94;97769.79;107907;1283;37030;-75
2021/12/17 11:37:50;;;;;;;9.90;3.80;;;;;;;2.59;81.01;97760.29;107830;1284;32169;-75
2021/12/17 11:40:23;;;;;;;9.80;4.50;;;;;;;2.58;80.82;97766.93;107892;1283;37065;-74
2021/12/17 11:43:16;;;;;;;9.40;4.20;;;;;;;2.55;80.93;97763.86;107835;1283;47577;-74
2021/12/17 11:45:56;;;;;;;16.90;7.80;;;;;;;2.50;81.19;97768.75;107826;1283;41681;-75
2021/12/17 11:48:29;;;;;;;10.40;5.30;;;;;;;2.52;81.40;97777.40;107715;1282;34957;-75
2021/12/17 11:51:11;;;;;;;11.20;4.90;;;;;;;2.50;81.40;97770.84;107804;1283;32968;-75
2021/12/17 11:54:00;;;;;;;10.20;5.10;;;;;;;2.42;81.50;97760.41;107937;1283;28928;-75
2021/12/17 11:56:46;;;;;;;13.60;4.90;;;;;;;2.36;81.75;97762.11;107873;1283;32218;-75
2021/12/17 11:59:35;;;;;;;12.60;5.90;;;;;;;2.36;82.01;97758.85;107954;1283;36023;-75
2021/12/17 12:02:11;;;;;;;11.80;5.50;;;;;;;2.34;81.93;97765.13;107897;1283;31322;-74
2021/12/17 12:05:01;;;;;;;11.20;6.30;;;;;;;2.34;82.22;97760.34;107910;1282;33222;-74
2021/12/17 12:07:36;;;;;;;13.90;5.50;;;;;;;2.34;82.29;97769.27;107876;1283;30872;-75
2021/12/17 12:10:22;;;;;;;9.60;4.50;;;;;;;2.35;82.44;97762.02;107793;1284;42816;-75
2021/12/17 12:13:01;;;;;;;15.30;7.10;;;;;;;2.36;82.43;97766.14;107783;1283;33716;-75
2021/12/17 12:15:40;;;;;;;10.80;5.70;;;;;;;2.38;82.33;97763.16;107880;1283;38577;-75
2021/12/17 12:18:16;;;;;;;11.90;5.30;;;;;;;2.41;82.61;97755.14;107745;1283;37398;-75
2021/12/17 12:21:02;;;;;;;11.50;5.60;;;;;;;2.42;82.54;97748.38;107926;1284;33740;-75
2021/12/17 12:24:01;;;;;;;13.20;7.00;;;;;;;2.39;82.57;97745.06;107851;1283;36598;-75
2021/12/17 12:26:40;;;;;;;12.30;4.90;;;;;;;2.34;82.50;97744.64;107743;1284;35990;-75
2021/12/17 12:29:11;;;;;;;12.20;5.90;;;;;;;2.29;82.72;97747.34;107796;1283;61092;-75
2021/12/17 12:31:55;;;;;;;12.60;5.40;;;;;;;2.29;82.94;97744.08;107839;1284;28483;-75
2021/12/17 12:34:31;;;;;;;14.70;6.40;;;;;;;2.31;82.98;97747.02;107740;1283;48760;-75
2021/12/17 12:37:03;;;;;;;7.00;4.40;;;;;;;2.32;83.09;97747.34;107865;1283;38532;-75
2021/12/17 12:39:35;;;;;;;10.50;5.50;;;;;;;2.29;83.13;97743.31;107891;1282;36732;-75
2021/12/17 12:42:11;;;;;;;11.50;5.40;;;;;;;2.27;83.32;97750.31;107887;1282;37482;-75
2021/12/17 12:45:10;;;;;;;12.30;6.70;;;;;;;2.27;83.48;97755.23;107939;1283;33850;-75
2021/12/17 12:47:45;;;;;;;14.20;6.90;;;;;;;2.28;83.56;97757.73;107900;1283;34229;-75
2021/12/17 12:50:15;;;;;;;14.70;7.00;;;;;;;2.28;83.45;97752.52;107819;1283;37218;-75
2021/12/17 12:52:45;;;;;;;10.70;6.10;;;;;;;2.26;83.34;97758.05;107862;1283;30475;-75
2021/12/17 12:55:15;;;;;;;;;;;;;;;2.27;83.34;97758.77;107739;1284;37540;-75
2021/12/17 12:57:47;;;;;;;18.50;7.30;;;;;;;2.27;83.45;97759.30;107971;1283;33214;-75
2021/12/17 13:00:20;;;;;;;10.90;6.30;;;;;;;2.26;83.45;97756.83;107762;1284;39368;-75
2021/12/17 13:02:52;;;;;;;9.00;5.40;;;;;;;2.24;83.49;97757.25;107785;1284;39763;-75
2021/12/17 13:05:24;;;;;;;15.00;7.30;;;;;;;2.22;83.55;97762.03;107783;1282;41326;-75
2021/12/17 13:07:56;;;;;;;18.80;7.70;;;;;;;2.22;83.38;97754.35;107685;1284;38960;-75
2021/12/17 13:10:28;;;;;;;12.10;6.40;;;;;;;2.22;83.55;97752.90;107809;1284;31159;-75
2021/12/17 13:13:10;;;;;;;16.20;7.90;;;;;;;2.22;83.61;97752.33;107814;1284;28999;-75
2021/12/17 13:15:45;;;;;;;14.40;7.80;;;;;;;2.19;83.58;97759.01;107842;1282;33822;-75
2021/12/17 13:21:19;;;;;;;12.20;8.00;;;;;;;2.15;83.69;97757.03;107836;1282;36223;-75
2021/12/17 13:23:53;;;;;;;15.20;8.20;;;;;;;2.12;83.77;97762.89;107861;1284;37018;-75
2021/12/17 13:26:25;;;;;;;13.60;7.70;;;;;;;2.12;83.75;97765.27;107880;1282;30516;-75
2021/12/17 13:29:00;;;;;;;13.10;7.60;;;;;;;2.11;83.52;97765.02;107894;1283;31635;-75
2021/12/17 13:31:50;;;;;;;12.30;6.70;;;;;;;2.12;83.28;97758.23;107903;1283;34513;-75
2021/12/17 13:34:28;;;;;;;14.20;6.70;;;;;;;2.11;82.98;97758.28;107853;1283;41544;-75
2021/12/17 13:37:05;;;;;;;12.90;5.70;;;;;;;2.12;83.18;97772.44;107906;1283;35899;-75
2021/12/17 13:39:36;;;;;;;14.00;6.80;;;;;;;2.13;83.04;97766.93;107795;1283;29666;-75
2021/12/17 13:42:07;;;;;;;9.90;5.90;;;;;;;2.12;82.81;97768.66;107759;1283;35077;-75
2021/12/17 13:44:42;;;;;;;12.30;6.40;;;;;;;2.12;82.74;97766.48;107791;1284;32616;-75
2021/12/17 13:47:23;;;;;;;12.00;5.80;;;;;;;2.15;82.63;97761.14;107799;1283;35257;-75
2021/12/17 13:49:53;;;;;;;14.90;8.20;;;;;;;2.14;82.71;97752.72;107718;1283;37098;-75
2021/12/17 13:52:25;;;;;;;13.20;6.60;;;;;;;2.13;82.79;97762.42;107888;1282;32401;-75
2021/12/17 13:54:56;;;;;;;10.30;5.30;;;;;;;2.11;82.69;97761.80;107730;1283;37598;-75
2021/12/17 13:57:26;;;;;;;12.80;7.60;;;;;;;2.06;82.69;97757.19;107796;1283;33253;-76
2021/12/17 14:00:06;;;;;;;10.80;6.40;;;;;;;2.04;82.77;97745.00;107722;1283;39805;-75
2021/12/17 14:02:36;;;;;;;16.00;7.80;;;;;;;2.01;82.72;97749.73;107752;1284;36198;-76
2021/12/17 14:05:08;;;;;;;13.30;6.70;;;;;;;2.00;82.76;97759.64;107869;1282;45467;-75
2021/12/17 14:07:39;;;;;;;17.60;7.50;;;;;;;2.00;82.69;97762.13;107864;1283;42731;-75
2021/12/17 14:10:11;;;;;;;11.40;6.90;;;;;;;1.97;82.66;97753.73;107700;1284;40087;-74
2021/12/17 14:12:42;;;;;;;12.20;6.60;;;;;;;1.98;82.59;97762.21;107809;1284;34963;-75
2021/12/17 14:15:13;;;;;;;13.60;7.00;;;;;;;1.99;82.73;97764.74;107748;1282;33953;-75
2021/12/17 14:17:44;;;;;;;10.60;5.30;;;;;;;1.99;82.56;97758.59;107799;1284;46957;-75
2021/12/17 14:20:15;;;;;;;10.80;6.70;;;;;;;1.98;82.46;97762.36;107900;1283;31150;-75
2021/12/17 14:22:45;;;;;;;12.80;6.70;;;;;;;1.98;82.38;97763.41;107813;1284;29219;-75